sensor_id;sensor_type;location;lat;lon;timestamp;pressure;altitude;pressure_sealevel;temperature;humidity
42431;BME280;28070;47.462;19.036;2022-09-06T00:00:07;100770.06;;;20.35;57.68
42431;BME280;28070;47.462;19.036;2022-09-06T00:02:40;100769.50;;;20.30;57.24
42431;BME280;28070;47.462;19.036;2022-09-06T00:05:11;100755.22;;;20.29;57.07
42431;BME280;28070;47.462;19.036;2022-09-06T00:07:39;100759.09;;;20.25;56.94
42431;BME280;28070;47.462;19.036;2022-09-06T00:10:08;100761.13;;;20.22;57.21
42431;BME280;28070;47.462;19.036;2022-09-06T00:12:37;100764.09;;;20.17;58.24
42431;BME280;28070;47.462;19.036;2022-09-06T00:15:06;100752.59;;;20.15;58.20
42431;BME280;28070;47.462;19.036;2022-09-06T00:17:35;100752.06;;;20.10;57.87
42431;BME280;28070;47.462;19.036;2022-09-06T00:20:05;100757.69;;;20.06;57.09
42431;BME280;28070;47.462;19.036;2022-09-06T00:22:36;100757.25;;;19.99;59.70
42431;BME280;28070;47.462;19.036;2022-09-06T00:25:05;100759.28;;;19.95;57.61
42431;BME280;28070;47.462;19.036;2022-09-06T00:27:33;100763.78;;;19.95;58.14
42431;BME280;28070;47.462;19.036;2022-09-06T00:30:03;100764.72;;;19.94;57.81
42431;BME280;28070;47.462;19.036;2022-09-06T00:32:31;100770.00;;;19.95;57.50
42431;BME280;28070;47.462;19.036;2022-09-06T00:34:59;100775.16;;;19.98;58.44
42431;BME280;28070;47.462;19.036;2022-09-06T00:37:29;100768.38;;;19.93;58.55
42431;BME280;28070;47.462;19.036;2022-09-06T00:39:57;100753.94;;;19.81;60.09
42431;BME280;28070;47.462;19.036;2022-09-06T00:42:25;100757.88;;;19.76;61.74
42431;BME280;28070;47.462;19.036;2022-09-06T00:44:54;100757.22;;;19.72;61.13
42431;BME280;28070;47.462;19.036;2022-09-06T00:47:22;100760.88;;;19.71;61.82
42431;BME280;28070;47.462;19.036;2022-09-06T00:49:52;100762.47;;;19.74;61.56
42431;BME280;28070;47.462;19.036;2022-09-06T00:52:22;100764.50;;;19.70;60.40
42431;BME280;28070;47.462;19.036;2022-09-06T00:54:54;100767.19;;;19.70;59.73
42431;BME280;28070;47.462;19.036;2022-09-06T00:57:22;100769.56;;;19.75;59.45
42431;BME280;28070;47.462;19.036;2022-09-06T00:59:53;100765.81;;;19.77;59.17
42431;BME280;28070;47.462;19.036;2022-09-06T01:02:22;100762.47;;;19.74;59.85
42431;BME280;28070;47.462;19.036;2022-09-06T01:04:51;100776.09;;;19.71;60.58
42431;BME280;28070;47.462;19.036;2022-09-06T01:07:28;100771.09;;;19.64;61.12
42431;BME280;28070;47.462;19.036;2022-09-06T01:10:15;100766.38;;;19.54;61.49
42431;BME280;28070;47.462;19.036;2022-09-06T01:12:55;100766.78;;;19.48;62.22
42431;BME280;28070;47.462;19.036;2022-09-06T01:15:36;100769.06;;;19.39;62.38
42431;BME280;28070;47.462;19.036;2022-09-06T01:18:17;100764.28;;;19.30;62.54
42431;BME280;28070;47.462;19.036;2022-09-06T01:21:03;100767.91;;;19.29;62.44
42431;BME280;28070;47.462;19.036;2022-09-06T01:29:47;100764.56;;;19.26;61.85
42431;BME280;28070;47.462;19.036;2022-09-06T01:32:22;100767.34;;;19.24;61.82
42431;BME280;28070;47.462;19.036;2022-09-06T01:35:00;100762.09;;;19.23;61.94
42431;BME280;28070;47.462;19.036;2022-09-06T01:37:29;100762.09;;;19.23;61.60
42431;BME280;28070;47.462;19.036;2022-09-06T01:39:58;100758.56;;;19.22;61.42
42431;BME280;28070;47.462;19.036;2022-09-06T01:42:28;100763.06;;;19.22;61.28
42431;BME280;28070;47.462;19.036;2022-09-06T01:45:00;100760.63;;;19.17;61.25
42431;BME280;28070;47.462;19.036;2022-09-06T01:47:37;100753.66;;;19.15;61.35
42431;BME280;28070;47.462;19.036;2022-09-06T01:50:26;100761.78;;;19.13;61.37
42431;BME280;28070;47.462;19.036;2022-09-06T01:53:02;100760.84;;;19.14;61.35
42431;BME280;28070;47.462;19.036;2022-09-06T01:55:40;100759.22;;;19.11;61.38
42431;BME280;28070;47.462;19.036;2022-09-06T01:58:22;100754.06;;;19.08;61.47
42431;BME280;28070;47.462;19.036;2022-09-06T02:01:02;100747.16;;;19.04;61.53
42431;BME280;28070;47.462;19.036;2022-09-06T02:03:37;100751.66;;;19.04;61.97
42431;BME280;28070;47.462;19.036;2022-09-06T02:06:14;100752.91;;;18.98;62.33
42431;BME280;28070;47.462;19.036;2022-09-06T02:08:47;100762.13;;;18.93;62.42
42431;BME280;28070;47.462;19.036;2022-09-06T02:11:16;100762.34;;;18.90;62.73
42431;BME280;28070;47.462;19.036;2022-09-06T02:13:52;100758.03;;;18.87;63.13
42431;BME280;28070;47.462;19.036;2022-09-06T02:16:25;100761.00;;;18.83;63.72
42431;BME280;28070;47.462;19.036;2022-09-06T02:18:59;100756.75;;;18.78;64.03
42431;BME280;28070;47.462;19.036;2022-09-06T02:21:32;100745.59;;;18.72;64.49
42431;BME280;28070;47.462;19.036;2022-09-06T02:24:04;100751.03;;;18.70;65.04
42431;BME280;28070;47.462;19.036;2022-09-06T02:26:36;100739.47;;;18.70;65.28
42431;BME280;28070;47.462;19.036;2022-09-06T02:29:04;100745.94;;;18.66;65.16
42431;BME280;28070;47.462;19.036;2022-09-06T02:31:36;100738.94;;;18.63;65.71
42431;BME280;28070;47.462;19.036;2022-09-06T02:34:06;100749.06;;;18.58;66.37
42431;BME280;28070;47.462;19.036;2022-09-06T02:36:35;100748.44;;;18.53;66.57
42431;BME280;28070;47.462;19.036;2022-09-06T02:39:04;100748.72;;;18.48;66.72
42431;BME280;28070;47.462;19.036;2022-09-06T02:41:33;100750.44;;;18.49;66.91
42431;BME280;28070;47.462;19.036;2022-09-06T02:44:02;100745.38;;;18.45;67.16
42431;BME280;28070;47.462;19.036;2022-09-06T02:46:30;100750.88;;;18.42;67.73
42431;BME280;28070;47.462;19.036;2022-09-06T02:48:59;100751.06;;;18.39;67.92
42431;BME280;28070;47.462;19.036;2022-09-06T02:51:28;100746.97;;;18.33;67.43
42431;BME280;28070;47.462;19.036;2022-09-06T02:53:56;100752.41;;;18.32;67.39
42431;BME280;28070;47.462;19.036;2022-09-06T02:56:24;100750.75;;;18.29;67.94
42431;BME280;28070;47.462;19.036;2022-09-06T02:58:52;100746.53;;;18.25;67.95
42431;BME280;28070;47.462;19.036;2022-09-06T03:01:21;100740.41;;;18.23;68.46
42431;BME280;28070;47.462;19.036;2022-09-06T03:03:49;100741.47;;;18.20;69.12
42431;BME280;28070;47.462;19.036;2022-09-06T03:06:19;100737.59;;;18.10;70.03
42431;BME280;28070;47.462;19.036;2022-09-06T03:08:47;100741.41;;;18.06;70.65
42431;BME280;28070;47.462;19.036;2022-09-06T03:11:16;100734.56;;;18.01;71.29
42431;BME280;28070;47.462;19.036;2022-09-06T03:13:44;100741.81;;;17.99;71.33
42431;BME280;28070;47.462;19.036;2022-09-06T03:16:12;100740.28;;;17.94;71.57
42431;BME280;28070;47.462;19.036;2022-09-06T03:18:41;100729.94;;;17.88;71.89
42431;BME280;28070;47.462;19.036;2022-09-06T03:21:09;100740.03;;;17.83;72.19
42431;BME280;28070;47.462;19.036;2022-09-06T03:23:38;100741.84;;;17.83;71.90
42431;BME280;28070;47.462;19.036;2022-09-06T03:26:07;100740.31;;;17.79;71.98
42431;BME280;28070;47.462;19.036;2022-09-06T03:28:35;100736.81;;;17.77;71.60
42431;BME280;28070;47.462;19.036;2022-09-06T03:31:03;100735.19;;;17.74;70.80
42431;BME280;28070;47.462;19.036;2022-09-06T03:33:31;100737.00;;;17.74;70.90
42431;BME280;28070;47.462;19.036;2022-09-06T03:36:01;100743.38;;;17.71;71.14
42431;BME280;28070;47.462;19.036;2022-09-06T03:38:29;100738.91;;;17.72;71.05
42431;BME280;28070;47.462;19.036;2022-09-06T03:40:59;100739.09;;;17.69;71.60
42431;BME280;28070;47.462;19.036;2022-09-06T03:43:27;100738.28;;;17.67;71.16
42431;BME280;28070;47.462;19.036;2022-09-06T03:45:57;100736.63;;;17.64;70.92
42431;BME280;28070;47.462;19.036;2022-09-06T03:48:28;100738.44;;;17.63;71.91
42431;BME280;28070;47.462;19.036;2022-09-06T03:50:57;100738.44;;;17.63;70.76
42431;BME280;28070;47.462;19.036;2022-09-06T03:53:27;100737.47;;;17.64;70.72
42431;BME280;28070;47.462;19.036;2022-09-06T03:55:56;100750.06;;;17.62;70.62
42431;BME280;28070;47.462;19.036;2022-09-06T03:58:29;100745.66;;;17.61;70.94
42431;BME280;28070;47.462;19.036;2022-09-06T04:01:05;100743.88;;;17.62;71.52
42431;BME280;28070;47.462;19.036;2022-09-06T04:03:34;100747.47;;;17.61;71.48
42431;BME280;28070;47.462;19.036;2022-09-06T04:06:03;100749.28;;;17.60;71.19
42431;BME280;28070;47.462;19.036;2022-09-06T04:08:32;100739.56;;;17.59;71.04
42431;BME280;28070;47.462;19.036;2022-09-06T04:11:00;100741.28;;;17.60;71.03
42431;BME280;28070;47.462;19.036;2022-09-06T04:13:31;100743.19;;;17.58;70.98
42431;BME280;28070;47.462;19.036;2022-09-06T04:15:59;100745.75;;;17.60;70.85
42431;BME280;28070;47.462;19.036;2022-09-06T04:18:28;100743.25;;;17.57;71.02
42431;BME280;28070;47.462;19.036;2022-09-06T04:20:56;100745.06;;;17.56;70.61
42431;BME280;28070;47.462;19.036;2022-09-06T04:23:26;100742.31;;;17.58;70.92
42431;BME280;28070;47.462;19.036;2022-09-06T04:25:56;100747.84;;;17.55;70.60
42431;BME280;28070;47.462;19.036;2022-09-06T04:28:25;100752.31;;;17.54;70.29
42431;BME280;28070;47.462;19.036;2022-09-06T04:30:57;100755.13;;;17.51;70.15
42431;BME280;28070;47.462;19.036;2022-09-06T04:33:31;100757.03;;;17.49;69.93
42431;BME280;28070;47.462;19.036;2022-09-06T04:36:01;100757.81;;;17.51;69.90
42431;BME280;28070;47.462;19.036;2022-09-06T04:38:33;100760.38;;;17.53;69.75
42431;BME280;28070;47.462;19.036;2022-09-06T04:41:02;100761.41;;;17.50;69.57
42431;BME280;28070;47.462;19.036;2022-09-06T04:43:30;100756.09;;;17.50;69.70
42431;BME280;28070;47.462;19.036;2022-09-06T04:46:04;100755.00;;;17.54;69.33
42431;BME280;28070;47.462;19.036;2022-09-06T04:48:32;100752.38;;;17.53;69.04
42431;BME280;28070;47.462;19.036;2022-09-06T04:51:00;100744.63;;;17.48;69.04
42431;BME280;28070;47.462;19.036;2022-09-06T04:53:28;100751.59;;;17.51;68.85
42431;BME280;28070;47.462;19.036;2022-09-06T04:55:57;100746.25;;;17.51;68.94
42431;BME280;28070;47.462;19.036;2022-09-06T04:58:25;100745.25;;;17.53;68.72
42431;BME280;28070;47.462;19.036;2022-09-06T05:00:53;100743.44;;;17.54;68.52
42431;BME280;28070;47.462;19.036;2022-09-06T05:03:23;100731.81;;;17.55;68.38
42431;BME280;28070;47.462;19.036;2022-09-06T05:05:51;100738.69;;;17.59;68.87
42431;BME280;28070;47.462;19.036;2022-09-06T05:08:19;100731.13;;;17.67;67.18
42431;BME280;28070;47.462;19.036;2022-09-06T05:10:50;100738.81;;;17.73;64.21
42431;BME280;28070;47.462;19.036;2022-09-06T05:13:18;100749.94;;;17.81;62.56
42431;BME280;28070;47.462;19.036;2022-09-06T05:15:46;100749.59;;;17.87;62.78
42431;BME280;28070;47.462;19.036;2022-09-06T05:18:15;100746.72;;;17.90;62.33
42431;BME280;28070;47.462;19.036;2022-09-06T05:20:50;100744.00;;;17.92;62.52
42431;BME280;28070;47.462;19.036;2022-09-06T05:23:18;100748.22;;;17.96;61.93
42431;BME280;28070;47.462;19.036;2022-09-06T05:25:47;100751.22;;;17.90;62.70
42431;BME280;28070;47.462;19.036;2022-09-06T05:28:16;100744.00;;;17.92;63.17
42431;BME280;28070;47.462;19.036;2022-09-06T05:30:44;100751.31;;;17.88;63.80
42431;BME280;28070;47.462;19.036;2022-09-06T05:33:17;100741.56;;;17.87;64.53
42431;BME280;28070;47.462;19.036;2022-09-06T05:35:48;100751.66;;;17.82;64.62
42431;BME280;28070;47.462;19.036;2022-09-06T05:38:16;100750.28;;;17.75;64.95
42431;BME280;28070;47.462;19.036;2022-09-06T05:40:44;100747.88;;;17.71;65.14
42431;BME280;28070;47.462;19.036;2022-09-06T05:43:13;100754.22;;;17.68;64.85
42431;BME280;28070;47.462;19.036;2022-09-06T05:45:41;100755.88;;;17.71;64.53
42431;BME280;28070;47.462;19.036;2022-09-06T05:48:11;100755.72;;;17.74;64.96
42431;BME280;28070;47.462;19.036;2022-09-06T05:50:39;100751.91;;;17.78;64.67
42431;BME280;28070;47.462;19.036;2022-09-06T05:53:09;100755.03;;;17.86;64.54
42431;BME280;28070;47.462;19.036;2022-09-06T05:55:37;100753.47;;;17.98;64.56
42431;BME280;28070;47.462;19.036;2022-09-06T05:58:08;100745.63;;;18.10;63.53
42431;BME280;28070;47.462;19.036;2022-09-06T06:00:37;100752.75;;;18.26;61.44
42431;BME280;28070;47.462;19.036;2022-09-06T06:03:05;100754.44;;;18.42;59.80
42431;BME280;28070;47.462;19.036;2022-09-06T06:05:33;100750.97;;;18.56;58.26
42431;BME280;28070;47.462;19.036;2022-09-06T06:08:01;100752.94;;;18.68;57.82
42431;BME280;28070;47.462;19.036;2022-09-06T06:10:31;100751.16;;;18.83;55.69
42431;BME280;28070;47.462;19.036;2022-09-06T06:13:04;100748.84;;;18.91;54.01
42431;BME280;28070;47.462;19.036;2022-09-06T06:15:32;100751.16;;;18.97;53.94
42431;BME280;28070;47.462;19.036;2022-09-06T06:18:00;100754.91;;;19.09;53.61
42431;BME280;28070;47.462;19.036;2022-09-06T06:20:29;100749.75;;;19.20;52.09
42431;BME280;28070;47.462;19.036;2022-09-06T06:22:57;100745.63;;;19.29;52.27
42431;BME280;28070;47.462;19.036;2022-09-06T06:25:25;100753.09;;;19.38;51.41
42431;BME280;28070;47.462;19.036;2022-09-06T06:27:54;100753.31;;;19.35;50.42
42431;BME280;28070;47.462;19.036;2022-09-06T06:30:23;100742.88;;;19.45;49.78
42431;BME280;28070;47.462;19.036;2022-09-06T06:32:51;100750.25;;;19.55;49.50
42431;BME280;28070;47.462;19.036;2022-09-06T06:35:19;100750.72;;;19.62;49.37
42431;BME280;28070;47.462;19.036;2022-09-06T06:37:47;100751.09;;;19.70;48.95
42431;BME280;28070;47.462;19.036;2022-09-06T06:40:16;100741.16;;;19.72;48.37
42431;BME280;28070;47.462;19.036;2022-09-06T06:42:44;100745.81;;;19.83;48.37
42431;BME280;28070;47.462;19.036;2022-09-06T06:45:14;100750.44;;;19.93;48.25
42431;BME280;28070;47.462;19.036;2022-09-06T06:47:42;100745.03;;;19.95;47.90
42431;BME280;28070;47.462;19.036;2022-09-06T06:50:10;100747.94;;;20.05;47.78
42431;BME280;28070;47.462;19.036;2022-09-06T06:52:38;100748.25;;;20.00;47.81
42431;BME280;28070;47.462;19.036;2022-09-06T06:55:07;100764.88;;;20.05;47.41
42431;BME280;28070;47.462;19.036;2022-09-06T06:57:35;100756.72;;;20.07;48.06
42431;BME280;28070;47.462;19.036;2022-09-06T07:00:04;100754.41;;;20.15;47.85
42431;BME280;28070;47.462;19.036;2022-09-06T07:02:34;100760.81;;;20.26;47.84
42431;BME280;28070;47.462;19.036;2022-09-06T07:05:03;100762.03;;;20.35;47.75
42431;BME280;28070;47.462;19.036;2022-09-06T07:07:52;100766.59;;;20.47;47.51
42431;BME280;28070;47.462;19.036;2022-09-06T07:10:20;100763.81;;;20.49;47.20
42431;BME280;28070;47.462;19.036;2022-09-06T07:13:04;100766.63;;;20.60;47.10
42431;BME280;28070;47.462;19.036;2022-09-06T07:15:32;100765.44;;;20.64;46.96
42431;BME280;28070;47.462;19.036;2022-09-06T07:18:01;100764.09;;;20.71;46.82
42431;BME280;28070;47.462;19.036;2022-09-06T07:20:29;100758.06;;;20.80;46.49
42431;BME280;28070;47.462;19.036;2022-09-06T07:23:18;100773.53;;;20.77;46.48
42431;BME280;28070;47.462;19.036;2022-09-06T07:26:06;100771.25;;;20.71;47.36
42431;BME280;28070;47.462;19.036;2022-09-06T07:28:34;100772.44;;;20.79;47.08
42431;BME280;28070;47.462;19.036;2022-09-06T07:31:02;100766.56;;;20.87;46.75
42431;BME280;28070;47.462;19.036;2022-09-06T07:33:35;100764.31;;;20.94;46.66
42431;BME280;28070;47.462;19.036;2022-09-06T07:36:04;100768.94;;;21.04;46.23
42431;BME280;28070;47.462;19.036;2022-09-06T07:38:34;100768.81;;;21.06;46.16
42431;BME280;28070;47.462;19.036;2022-09-06T07:41:05;100767.84;;;21.07;45.92
42431;BME280;28070;47.462;19.036;2022-09-06T07:43:34;100762.81;;;21.15;46.13
42431;BME280;28070;47.462;19.036;2022-09-06T07:46:05;100765.31;;;21.31;46.33
42431;BME280;28070;47.462;19.036;2022-09-06T07:48:36;100770.91;;;21.40;45.95
42431;BME280;28070;47.462;19.036;2022-09-06T07:51:06;100772.19;;;21.48;45.42
42431;BME280;28070;47.462;19.036;2022-09-06T07:53:35;100770.66;;;21.56;45.54
42431;BME280;28070;47.462;19.036;2022-09-06T07:56:05;100770.63;;;21.69;45.33
42431;BME280;28070;47.462;19.036;2022-09-06T07:58:34;100766.53;;;21.76;45.23
42431;BME280;28070;47.462;19.036;2022-09-06T08:01:17;100768.63;;;21.72;45.72
42431;BME280;28070;47.462;19.036;2022-09-06T08:03:47;100770.97;;;21.64;45.23
42431;BME280;28070;47.462;19.036;2022-09-06T08:06:15;100780.09;;;21.74;45.20
42431;BME280;28070;47.462;19.036;2022-09-06T08:08:43;100774.75;;;21.62;45.35
42431;BME280;28070;47.462;19.036;2022-09-06T08:11:28;100767.53;;;21.75;45.62
42431;BME280;28070;47.462;19.036;2022-09-06T08:13:58;100768.47;;;21.87;45.63
42431;BME280;28070;47.462;19.036;2022-09-06T08:16:27;100773.44;;;22.04;44.82
42431;BME280;28070;47.462;19.036;2022-09-06T08:18:59;100767.50;;;22.24;44.67
42431;BME280;28070;47.462;19.036;2022-09-06T08:21:29;100762.25;;;22.34;44.37
42431;BME280;28070;47.462;19.036;2022-09-06T08:24:00;100759.56;;;22.34;44.72
42431;BME280;28070;47.462;19.036;2022-09-06T08:26:30;100754.91;;;22.25;44.75
42431;BME280;28070;47.462;19.036;2022-09-06T08:28:59;100755.03;;;22.23;45.09
42431;BME280;28070;47.462;19.036;2022-09-06T08:31:29;100753.06;;;22.25;45.24
42431;BME280;28070;47.462;19.036;2022-09-06T08:33:59;100751.28;;;22.37;44.99
42431;BME280;28070;47.462;19.036;2022-09-06T08:36:28;100749.94;;;22.43;45.02
42431;BME280;28070;47.462;19.036;2022-09-06T08:38:57;100752.13;;;22.61;45.04
42431;BME280;28070;47.462;19.036;2022-09-06T08:41:26;100750.69;;;22.80;44.21
42431;BME280;28070;47.462;19.036;2022-09-06T08:43:59;100750.03;;;22.89;44.13
42431;BME280;28070;47.462;19.036;2022-09-06T08:46:54;100745.59;;;22.99;44.82
42431;BME280;28070;47.462;19.036;2022-09-06T08:49:26;100745.16;;;23.05;44.13
42431;BME280;28070;47.462;19.036;2022-09-06T08:52:10;100747.22;;;23.24;44.26
42431;BME280;28070;47.462;19.036;2022-09-06T08:54:49;100744.78;;;23.32;43.13
42431;BME280;28070;47.462;19.036;2022-09-06T08:57:33;100738.91;;;23.49;42.60
42431;BME280;28070;47.462;19.036;2022-09-06T09:00:08;100737.81;;;23.52;42.74
42431;BME280;28070;47.462;19.036;2022-09-06T09:02:44;100733.78;;;23.58;43.01
42431;BME280;28070;47.462;19.036;2022-09-06T09:05:20;100735.59;;;23.57;42.92
42431;BME280;28070;47.462;19.036;2022-09-06T09:07:58;100736.34;;;23.70;42.88
42431;BME280;28070;47.462;19.036;2022-09-06T09:10:30;100731.69;;;23.72;42.75
42431;BME280;28070;47.462;19.036;2022-09-06T09:13:03;100734.97;;;23.87;42.59
42431;BME280;28070;47.462;19.036;2022-09-06T09:15:35;100731.03;;;24.02;42.51
42431;BME280;28070;47.462;19.036;2022-09-06T09:18:06;100727.56;;;24.00;43.42
42431;BME280;28070;47.462;19.036;2022-09-06T09:20:37;100724.03;;;24.00;42.86
42431;BME280;28070;47.462;19.036;2022-09-06T09:23:06;100717.44;;;23.93;42.81
42431;BME280;28070;47.462;19.036;2022-09-06T09:25:35;100725.81;;;23.78;43.45
42431;BME280;28070;47.462;19.036;2022-09-06T09:28:11;100717.19;;;23.85;43.54
42431;BME280;28070;47.462;19.036;2022-09-06T09:30:47;100708.38;;;23.83;44.22
42431;BME280;28070;47.462;19.036;2022-09-06T09:33:27;100702.56;;;23.98;43.86
42431;BME280;28070;47.462;19.036;2022-09-06T09:35:59;100700.56;;;24.12;44.18
42431;BME280;28070;47.462;19.036;2022-09-06T09:38:30;100695.88;;;24.14;43.32
42431;BME280;28070;47.462;19.036;2022-09-06T09:41:02;100698.31;;;24.28;43.04
42431;BME280;28070;47.462;19.036;2022-09-06T09:43:35;100694.78;;;24.16;43.27
42431;BME280;28070;47.462;19.036;2022-09-06T09:46:15;100687.59;;;24.26;42.88
42431;BME280;28070;47.462;19.036;2022-09-06T09:49:00;100687.09;;;24.44;43.01
42431;BME280;28070;47.462;19.036;2022-09-06T09:51:31;100689.00;;;24.53;42.51
42431;BME280;28070;47.462;19.036;2022-09-06T09:54:01;100681.44;;;24.68;42.28
42431;BME280;28070;47.462;19.036;2022-09-06T09:56:37;100679.97;;;24.84;42.24
42431;BME280;28070;47.462;19.036;2022-09-06T09:59:15;100682.06;;;25.02;41.46
42431;BME280;28070;47.462;19.036;2022-09-06T10:01:45;100672.50;;;24.98;41.59
42431;BME280;28070;47.462;19.036;2022-09-06T10:04:17;100669.72;;;24.88;42.11
42431;BME280;28070;47.462;19.036;2022-09-06T10:07:10;100666.78;;;24.91;41.54
42431;BME280;28070;47.462;19.036;2022-09-06T10:09:41;100659.63;;;24.80;41.60
42431;BME280;28070;47.462;19.036;2022-09-06T10:12:15;100663.25;;;24.70;42.16
42431;BME280;28070;47.462;19.036;2022-09-06T10:14:45;100649.00;;;24.68;42.52
42431;BME280;28070;47.462;19.036;2022-09-06T10:17:22;100642.34;;;24.72;42.73
42431;BME280;28070;47.462;19.036;2022-09-06T10:19:56;100654.38;;;24.88;43.07
42431;BME280;28070;47.462;19.036;2022-09-06T10:22:29;100648.97;;;24.88;42.42
42431;BME280;28070;47.462;19.036;2022-09-06T10:25:38;100642.75;;;24.98;42.04
42431;BME280;28070;47.462;19.036;2022-09-06T10:28:26;100642.97;;;25.06;42.12
42431;BME280;28070;47.462;19.036;2022-09-06T10:31:07;100635.44;;;25.09;41.53
42431;BME280;28070;47.462;19.036;2022-09-06T10:33:50;100631.47;;;25.04;41.48
42431;BME280;28070;47.462;19.036;2022-09-06T10:36:27;100634.31;;;25.12;41.79
42431;BME280;28070;47.462;19.036;2022-09-06T10:38:59;100632.50;;;25.22;41.95
42431;BME280;28070;47.462;19.036;2022-09-06T10:41:54;100630.22;;;25.17;41.54
42431;BME280;28070;47.462;19.036;2022-09-06T10:44:38;100626.28;;;25.31;41.46
42431;BME280;28070;47.462;19.036;2022-09-06T10:47:12;100617.06;;;25.43;41.76
42431;BME280;28070;47.462;19.036;2022-09-06T10:49:43;100619.34;;;25.48;41.55
42431;BME280;28070;47.462;19.036;2022-09-06T10:52:15;100608.09;;;25.43;41.51
42431;BME280;28070;47.462;19.036;2022-09-06T10:54:46;100616.66;;;25.58;42.18
42431;BME280;28070;47.462;19.036;2022-09-06T10:57:18;100614.09;;;25.66;41.68
42431;BME280;28070;47.462;19.036;2022-09-06T11:00:10;100610.59;;;25.85;41.54
42431;BME280;28070;47.462;19.036;2022-09-06T11:02:44;100626.25;;;26.00;42.11
42431;BME280;28070;47.462;19.036;2022-09-06T11:05:18;100624.81;;;26.16;41.47
42431;BME280;28070;47.462;19.036;2022-09-06T11:08:07;100617.25;;;26.29;41.77
42431;BME280;28070;47.462;19.036;2022-09-06T11:11:02;100615.69;;;26.26;41.65
42431;BME280;28070;47.462;19.036;2022-09-06T11:13:32;100612.41;;;26.52;41.60
42431;BME280;28070;47.462;19.036;2022-09-06T11:16:04;100616.66;;;26.64;40.28
42431;BME280;28070;47.462;19.036;2022-09-06T11:18:38;100613.56;;;26.49;40.65
42431;BME280;28070;47.462;19.036;2022-09-06T11:21:25;100607.97;;;26.60;40.70
42431;BME280;28070;47.462;19.036;2022-09-06T11:24:04;100606.25;;;26.69;40.41
42431;BME280;28070;47.462;19.036;2022-09-06T11:26:43;100597.66;;;26.74;40.24
42431;BME280;28070;47.462;19.036;2022-09-06T11:29:20;100591.28;;;26.92;40.49
42431;BME280;28070;47.462;19.036;2022-09-06T11:31:52;100595.81;;;27.11;40.39
42431;BME280;28070;47.462;19.036;2022-09-06T11:34:50;100591.44;;;27.28;39.67
42431;BME280;28070;47.462;19.036;2022-09-06T11:37:25;100584.31;;;27.27;39.82
42431;BME280;28070;47.462;19.036;2022-09-06T11:40:06;100586.75;;;27.48;38.74
42431;BME280;28070;47.462;19.036;2022-09-06T11:43:14;100579.19;;;27.69;37.95
42431;BME280;28070;47.462;19.036;2022-09-06T11:45:46;100581.75;;;27.89;37.43
42431;BME280;28070;47.462;19.036;2022-09-06T11:51:33;100578.25;;;28.14;37.30
42431;BME280;28070;47.462;19.036;2022-09-06T11:54:09;100567.59;;;28.38;37.17
42431;BME280;28070;47.462;19.036;2022-09-06T11:56:50;100571.31;;;28.37;36.80
42431;BME280;28070;47.462;19.036;2022-09-06T11:59:30;100564.91;;;28.72;36.55
42431;BME280;28070;47.462;19.036;2022-09-06T12:02:01;100565.03;;;28.71;36.06
42431;BME280;28070;47.462;19.036;2022-09-06T12:05:08;100557.88;;;28.96;35.88
42431;BME280;28070;47.462;19.036;2022-09-06T12:07:38;100553.69;;;29.01;35.40
42431;BME280;28070;47.462;19.036;2022-09-06T12:10:45;100551.41;;;28.89;35.30
42431;BME280;28070;47.462;19.036;2022-09-06T12:16:18;100548.44;;;28.82;35.37
42431;BME280;28070;47.462;19.036;2022-09-06T12:19:00;100539.34;;;28.91;35.23
42431;BME280;28070;47.462;19.036;2022-09-06T12:21:46;100538.81;;;29.30;34.70
42431;BME280;28070;47.462;19.036;2022-09-06T12:24:51;100538.50;;;29.41;33.88
42431;BME280;28070;47.462;19.036;2022-09-06T12:27:20;100536.00;;;29.48;34.03
42431;BME280;28070;47.462;19.036;2022-09-06T12:29:54;100526.97;;;29.55;32.95
42431;BME280;28070;47.462;19.036;2022-09-06T12:32:28;100518.81;;;29.80;32.49
42431;BME280;28070;47.462;19.036;2022-09-06T12:35:06;100523.25;;;29.65;31.48
42431;BME280;28070;47.462;19.036;2022-09-06T12:37:59;100513.38;;;29.80;30.90
42431;BME280;28070;47.462;19.036;2022-09-06T12:40:31;100520.88;;;29.86;29.99
42431;BME280;28070;47.462;19.036;2022-09-06T12:43:02;100515.91;;;29.98;31.53
42431;BME280;28070;47.462;19.036;2022-09-06T12:45:31;100503.31;;;29.97;32.44
42431;BME280;28070;47.462;19.036;2022-09-06T12:48:07;100499.22;;;29.84;32.23
42431;BME280;28070;47.462;19.036;2022-09-06T12:50:36;100496.69;;;29.50;31.75
42431;BME280;28070;47.462;19.036;2022-09-06T12:53:17;100489.56;;;29.74;31.97
42431;BME280;28070;47.462;19.036;2022-09-06T12:56:01;100489.03;;;29.95;31.95
42431;BME280;28070;47.462;19.036;2022-09-06T12:58:30;100489.56;;;30.06;31.51
42431;BME280;28070;47.462;19.036;2022-09-06T13:01:04;100486.09;;;30.37;31.32
42431;BME280;28070;47.462;19.036;2022-09-06T13:03:39;100490.91;;;30.74;30.55
42431;BME280;28070;47.462;19.036;2022-09-06T13:06:11;100474.34;;;30.84;30.43
42431;BME280;28070;47.462;19.036;2022-09-06T13:08:49;100474.63;;;30.50;30.80
42431;BME280;28070;47.462;19.036;2022-09-06T13:11:23;100470.66;;;30.13;31.82
42431;BME280;28070;47.462;19.036;2022-09-06T13:13:53;100466.38;;;30.18;31.54
42431;BME280;28070;47.462;19.036;2022-09-06T13:16:24;100468.66;;;30.54;31.04
42431;BME280;28070;47.462;19.036;2022-09-06T13:18:54;100460.50;;;30.85;30.66
42431;BME280;28070;47.462;19.036;2022-09-06T13:21:38;100463.16;;;30.70;30.60